Time;durP1;ratioP1;P1;durP2;ratioP2;P2;SDS_P1;SDS_P2;PMS_P1;PMS_P2;Temp;Humidity;BMP_temperature;BMP_pressure;BME280_temperature;BME280_humidity;BME280_pressure;Samples;Min_cycle;Max_cycle;Signal;HPM_P1;HPM_P2
2021/09/26 00:00:23;;;;;;;15.57;14.00;;;15.60;85.40;;;14.71;85.16;98077.91;5073551;28;21036;-71
2021/09/26 00:02:52;;;;;;;15.27;13.87;;;15.60;85.40;;;14.71;84.73;98084.19;5070241;28;20547;-72
2021/09/26 00:05:19;;;;;;;14.07;12.87;;;15.60;85.20;;;14.53;85.97;98078.91;5067291;28;20542;-70
2021/09/26 00:07:46;;;;;;;14.60;13.30;;;15.50;85.30;;;14.61;85.02;98077.69;5070121;28;21025;-69
2021/09/26 00:10:15;;;;;;;13.90;12.43;;;15.50;85.50;;;14.59;84.99;98078.75;5070235;28;20492;-70
2021/09/26 00:12:43;;;;;;;14.40;13.00;;;15.50;85.40;;;14.56;85.15;98071.09;5071744;28;20470;-70
2021/09/26 00:15:15;;;;;;;13.43;12.23;;;15.40;85.60;;;14.43;85.85;98077.59;5067911;28;20998;-70
2021/09/26 00:17:42;;;;;;;13.50;12.30;;;15.40;85.60;;;14.44;86.07;98073.81;5071543;28;21020;-70
2021/09/26 00:20:13;;;;;;;14.13;12.70;;;15.40;85.80;;;14.56;85.04;98075.69;5069923;28;20484;-70
2021/09/26 00:22:40;;;;;;;15.20;13.70;;;15.40;85.50;;;14.46;85.90;98065.44;5062719;28;20957;-70
2021/09/26 00:25:09;;;;;;;14.87;13.50;;;15.40;85.50;;;14.64;84.86;98074.50;5063416;28;21117;-69
2021/09/26 00:27:36;;;;;;;13.83;12.53;;;15.50;85.20;;;14.51;85.30;98062.81;5068730;28;20543;-70
2021/09/26 00:30:05;;;;;;;13.40;12.20;;;15.50;85.30;;;14.73;84.42;98065.75;5072630;28;20544;-69
2021/09/26 00:32:32;;;;;;;13.17;11.87;;;15.50;84.70;;;14.70;83.90;98058.03;5066577;28;20459;-69
2021/09/26 00:34:59;;;;;;;13.20;11.80;;;15.50;84.50;;;14.66;84.50;98054.16;5069669;28;20896;-69
2021/09/26 00:37:27;;;;;;;13.87;12.47;;;15.60;84.30;;;14.66;84.24;98058.75;5068654;28;20444;-69
2021/09/26 00:39:54;;;;;;;13.90;12.70;;;15.60;84.40;;;14.63;84.30;98064.69;5068777;28;20543;-69
2021/09/26 00:42:21;;;;;;;13.80;12.53;;;15.60;84.10;;;14.48;85.12;98067.91;5069985;28;21060;-71
2021/09/26 00:44:48;;;;;;;12.63;11.57;;;15.50;84.60;;;14.37;85.89;98069.56;5071880;28;20547;-71
2021/09/26 00:47:15;;;;;;;13.73;12.50;;;15.40;85.00;;;14.54;85.14;98080.53;5066402;28;20517;-71
2021/09/26 00:49:43;;;;;;;12.73;11.67;;;15.40;85.20;;;14.63;84.19;98075.56;5071078;28;20504;-71
2021/09/26 00:52:10;;;;;;;13.83;12.43;;;15.40;84.90;;;14.52;84.34;98071.81;5071625;28;20551;-72
2021/09/26 00:54:39;;;;;;;13.13;11.97;;;15.40;84.60;;;14.59;84.42;98075.19;5067153;28;20504;-71
2021/09/26 00:57:07;;;;;;;14.00;12.70;;;15.50;84.80;;;14.75;83.83;98072.81;5067757;28;20460;-71
2021/09/26 00:59:33;;;;;;;13.00;11.70;;;15.60;84.20;;;14.81;83.08;98069.16;5071132;28;20467;-71
2021/09/26 01:02:00;;;;;;;13.10;12.00;;;15.70;83.80;;;14.79;83.25;98069.38;5063879;28;20910;-71
2021/09/26 01:04:28;;;;;;;12.63;11.33;;;15.70;83.60;;;14.78;83.12;98064.19;5063403;28;20479;-72
2021/09/26 01:07:01;;;;;;;12.70;11.70;;;15.70;83.70;;;14.87;83.14;98065.47;5070657;28;20998;-70
2021/09/26 01:09:35;;;;;;;14.10;12.80;;;15.70;83.40;;;14.83;83.47;98075.19;5069759;28;21041;-70
2021/09/26 01:12:13;;;;;;;14.07;12.67;;;15.70;83.40;;;14.87;83.41;98060.03;5068557;28;20556;-71
2021/09/26 01:14:49;;;;;;;13.33;12.10;;;15.80;83.30;;;14.86;83.48;98063.81;5069277;28;21120;-71
2021/09/26 01:17:24;;;;;;;12.73;11.37;;;15.80;83.30;;;14.81;83.40;98067.25;5059976;28;20452;-70
2021/09/26 01:20:44;;;;;;;14.20;12.67;;;15.80;83.20;;;14.78;83.18;98072.34;5068038;28;20768;-71
2021/09/26 01:24:06;;;;;;;13.20;12.00;;;15.70;83.20;;;14.71;83.53;98067.88;5038184;28;20484;-71
2021/09/26 01:26:57;;;;;;;14.67;12.10;;;15.70;83.20;;;14.92;82.45;98068.28;5046093;28;20478;-71
2021/09/26 01:30:18;;;;;;;12.27;11.17;;;15.80;82.70;;;14.92;82.39;98073.72;5062519;28;21035;-71
2021/09/26 01:32:56;;;;;;;12.70;11.50;;;15.70;82.70;;;14.92;81.97;98070.19;5068515;28;20476;-71
2021/09/26 01:35:24;;;;;;;11.63;10.43;;;15.70;82.70;;;14.89;81.79;98081.56;5062848;28;20560;-70
2021/09/26 01:38:06;;;;;;;12.90;11.67;;;15.80;82.40;;;14.95;81.50;98075.97;5068539;28;20456;-71
2021/09/26 01:40:44;;;;;;;12.97;11.50;;;15.80;82.00;;;14.96;81.46;98069.47;5064686;28;20837;-71
2021/09/26 01:43:17;;;;;;;12.20;11.00;;;15.80;81.80;;;14.89;82.15;98065.22;5071572;28;20463;-72
2021/09/26 01:45:50;;;;;;;11.33;10.17;;;15.70;82.00;;;14.89;81.88;98066.03;5070801;28;20472;-70
2021/09/26 01:48:21;;;;;;;11.80;10.40;;;15.80;82.10;;;14.96;81.84;98069.47;5067374;28;20533;-70
2021/09/26 01:50:53;;;;;;;13.30;11.37;;;15.80;81.80;;;15.01;80.82;98066.81;5081518;28;20801;-69
2021/09/26 01:53:23;;;;;;;10.63;9.73;;;15.90;81.20;;;15.00;80.87;98059.72;5063672;28;20857;-69
2021/09/26 01:55:51;;;;;;;12.57;11.47;;;15.90;81.10;;;15.05;80.79;98060.88;5061535;28;20564;-69
2021/09/26 01:58:19;;;;;;;11.20;10.03;;;15.90;81.00;;;15.14;79.79;98062.97;5061452;28;20459;-69
2021/09/26 02:00:49;;;;;;;12.47;10.80;;;16.00;80.60;;;15.00;80.79;98065.19;5068773;28;20460;-69
2021/09/26 02:03:20;;;;;;;13.00;10.90;;;15.90;80.50;;;15.14;79.89;98059.44;5064045;28;20452;-70
2021/09/26 02:05:48;;;;;;;11.40;10.40;;;16.00;80.30;;;15.09;80.12;98062.88;5059016;28;20512;-70
2021/09/26 02:08:15;;;;;;;11.93;10.67;;;16.00;80.20;;;14.99;80.55;98060.81;5066654;28;21084;-69
2021/09/26 02:10:44;;;;;;;11.00;10.10;;;16.00;80.40;;;15.11;80.21;98066.19;5061259;28;20533;-71
2021/09/26 02:13:14;;;;;;;10.77;9.90;;;16.00;80.20;;;15.15;79.48;98061.09;5065266;28;20459;-71
2021/09/26 02:15:44;;;;;;;11.20;10.13;;;16.00;79.80;;;15.09;79.79;98051.16;5062202;28;20478;-71
2021/09/26 02:18:15;;;;;;;11.53;10.43;;;16.00;79.90;;;15.10;80.59;98052.84;5065360;28;20498;-71
2021/09/26 02:20:43;;;;;;;11.00;10.03;;;16.10;80.10;;;15.09;80.29;98046.56;5059822;28;20456;-71
2021/09/26 02:23:11;;;;;;;11.53;10.53;;;16.00;80.10;;;14.98;80.94;98067.31;5060844;28;20482;-71
2021/09/26 02:25:39;;;;;;;11.37;10.43;;;16.00;80.30;;;14.95;81.16;98059.66;5062393;28;20511;-71
2021/09/26 02:28:07;;;;;;;11.60;10.60;;;15.90;80.30;;;14.93;81.13;98040.00;5066649;28;20460;-70
2021/09/26 02:30:34;;;;;;;11.07;10.07;;;15.90;80.30;;;14.88;82.01;98056.22;5061795;28;20713;-70
2021/09/26 02:33:01;;;;;;;11.70;10.60;;;15.90;80.70;;;14.80;82.14;98059.34;5067426;28;20544;-70
2021/09/26 02:35:30;;;;;;;11.27;10.27;;;15.80;81.00;;;14.83;81.83;98051.50;5066957;28;20572;-71
2021/09/26 02:37:57;;;;;;;11.70;10.50;;;15.80;81.10;;;14.89;81.77;98049.72;5064791;28;20942;-71
2021/09/26 02:40:24;;;;;;;11.33;10.23;;;15.80;81.10;;;14.97;81.74;98043.06;5063618;28;20754;-71
2021/09/26 02:43:06;;;;;;;10.57;9.67;;;15.80;81.00;;;15.02;81.24;98049.44;5063311;28;20552;-71
2021/09/26 02:45:41;;;;;;;10.67;9.87;;;15.80;80.90;;;15.00;80.87;98043.41;5059816;28;20464;-71
2021/09/26 02:48:14;;;;;;;11.17;10.07;;;15.90;80.40;;;14.99;80.39;98044.47;5067620;28;20534;-71
2021/09/26 02:50:46;;;;;;;11.30;9.77;;;15.90;80.30;;;14.91;80.76;98050.28;5067558;28;20563;-71
2021/09/26 02:53:14;;;;;;;10.50;9.60;;;15.90;80.40;;;14.94;80.93;98041.69;5058923;28;20500;-71
2021/09/26 02:55:44;;;;;;;10.80;9.87;;;15.80;80.40;;;14.89;81.35;98046.19;5065346;28;20512;-71
2021/09/26 02:58:11;;;;;;;11.37;10.37;;;15.80;80.40;;;14.92;80.84;98043.78;5063688;28;20818;-71
2021/09/26 03:00:41;;;;;;;10.73;9.83;;;15.80;80.20;;;14.82;80.90;98041.69;5066839;28;20466;-72
2021/09/26 03:03:11;;;;;;;11.83;10.73;;;15.80;80.30;;;14.78;81.67;98043.25;5069033;28;21020;-71
2021/09/26 03:05:39;;;;;;;11.53;10.53;;;15.80;80.70;;;14.77;81.81;98038.06;5065695;28;20499;-72
2021/09/26 03:08:07;;;;;;;11.70;10.60;;;15.70;80.60;;;14.79;81.60;98036.75;5066247;28;20539;-72
2021/09/26 03:10:36;;;;;;;11.67;10.67;;;15.70;80.80;;;14.73;81.92;98037.75;5071051;28;20459;-72
2021/09/26 03:13:03;;;;;;;10.93;10.03;;;15.70;80.80;;;14.89;81.41;98032.59;5061370;28;20547;-71
2021/09/26 03:15:30;;;;;;;11.23;10.23;;;15.70;80.70;;;14.88;81.22;98023.59;5069358;28;20468;-72
2021/09/26 03:17:57;;;;;;;10.53;9.53;;;15.80;80.80;;;14.85;81.16;98018.66;5072137;28;21024;-72
2021/09/26 03:20:24;;;;;;;10.40;9.40;;;15.80;80.50;;;14.80;81.85;98026.72;5068067;28;20453;-71
2021/09/26 03:22:54;;;;;;;11.47;10.47;;;15.80;80.50;;;14.80;81.57;98021.28;5071166;28;20557;-72
2021/09/26 03:25:22;;;;;;;11.23;10.27;;;15.70;80.80;;;14.83;81.61;98009.91;5063361;28;20457;-71
2021/09/26 03:27:50;;;;;;;9.70;8.80;;;15.70;80.70;;;14.94;80.92;98022.63;5071728;28;20464;-70
2021/09/26 03:30:18;;;;;;;11.03;9.93;;;15.80;80.50;;;15.06;80.38;98013.56;5072487;28;20821;-71
2021/09/26 03:32:46;;;;;;;10.93;9.83;;;15.90;80.30;;;14.97;80.98;98015.84;5066664;28;20533;-72
2021/09/26 03:35:15;;;;;;;10.53;9.60;;;15.90;80.30;;;15.06;80.71;98022.56;5070325;28;20477;-72
2021/09/26 03:37:42;;;;;;;10.60;9.60;;;16.00;80.30;;;15.14;80.31;98010.47;5067812;28;20540;-72
2021/09/26 03:40:10;;;;;;;10.03;9.20;;;16.00;80.10;;;15.29;79.47;98018.88;5072430;28;20548;-71
2021/09/26 03:42:39;;;;;;;9.97;9.07;;;16.10;79.80;;;15.19;79.98;98013.25;5070216;28;20635;-71
2021/09/26 03:45:08;;;;;;;10.27;9.40;;;16.10;79.70;;;15.20;80.39;98006.75;5071036;28;20882;-71
2021/09/26 03:47:36;;;;;;;11.23;10.33;;;16.10;79.90;;;15.28;79.76;98008.22;5072057;28;20456;-71
2021/09/26 03:50:05;;;;;;;10.60;9.70;;;16.10;79.70;;;15.30;79.64;98011.53;5073511;28;21005;-71
2021/09/26 03:52:34;;;;;;;10.93;10.03;;;16.20;79.70;;;15.32;79.67;98005.84;5066002;28;20563;-70
2021/09/26 03:55:02;;;;;;;10.57;9.63;;;16.20;79.40;;;15.30;79.67;98003.38;5067606;28;20480;-70
2021/09/26 03:57:29;;;;;;;9.53;8.70;;;16.20;79.20;;;15.40;79.04;98002.72;5068650;28;20540;-71
2021/09/26 03:59:57;;;;;;;10.90;9.93;;;16.20;79.20;;;15.24;79.58;97994.31;5084127;28;20488;-71
2021/09/26 04:02:24;;;;;;;10.03;9.03;;;16.20;79.30;;;15.41;78.98;98004.38;5071047;28;20461;-71
2021/09/26 04:04:53;;;;;;;10.10;9.20;;;16.20;79.10;;;15.34;79.24;97987.38;5067556;28;20507;-71
2021/09/26 04:07:20;;;;;;;10.63;9.67;;;16.30;79.10;;;15.35;79.07;97989.84;5071019;28;20459;-70
2021/09/26 04:09:47;;;;;;;10.63;9.60;;;16.30;79.00;;;15.24;79.57;97997.03;5064473;28;20445;-71
2021/09/26 04:12:14;;;;;;;11.20;9.47;;;16.20;79.10;;;15.33;79.30;97996.63;5067302;28;20457;-70
2021/09/26 04:14:41;;;;;;;10.43;9.40;;;16.20;79.20;;;15.20;79.91;98009.47;5066860;28;20468;-72
2021/09/26 04:17:10;;;;;;;9.93;9.03;;;16.10;79.30;;;15.04;81.03;98015.72;5071046;28;20999;-71
2021/09/26 04:19:37;;;;;;;10.20;9.20;;;16.00;79.60;;;14.96;81.26;98015.06;5071448;28;20472;-70
2021/09/26 04:22:04;;;;;;;11.30;10.20;;;15.90;79.90;;;14.84;81.76;98006.13;5062371;28;20546;-71
2021/09/26 04:24:31;;;;;;;11.13;10.10;;;15.80;80.40;;;14.82;82.32;98011.78;5065957;28;20469;-71
2021/09/26 04:26:58;;;;;;;9.00;8.30;;;15.80;80.90;;;14.81;82.54;98010.13;5067242;28;20893;-71
2021/09/26 04:29:25;;;;;;;10.50;9.60;;;15.70;81.10;;;14.81;82.55;98003.88;5070027;28;20522;-71
2021/09/26 04:31:52;;;;;;;13.07;9.80;;;15.70;81.30;;;14.74;82.65;98006.75;5066990;28;20460;-71
2021/09/26 04:34:25;;;;;;;10.73;9.73;;;15.70;81.10;;;14.61;83.39;98017.88;5070402;28;20575;-71
2021/09/26 04:36:53;;;;;;;9.00;8.10;;;15.60;81.60;;;14.51;83.36;98015.78;5067051;28;20464;-71
2021/09/26 04:39:20;;;;;;;9.90;9.10;;;15.50;82.00;;;14.51;83.51;98011.16;5063025;28;20469;-71
2021/09/26 04:41:47;;;;;;;12.63;9.90;;;15.40;82.40;;;14.72;82.53;97998.81;5069428;28;20457;-71
2021/09/26 04:44:14;;;;;;;9.90;9.00;;;15.50;82.30;;;14.64;83.15;98012.78;5072351;28;20477;-71
2021/09/26 04:46:41;;;;;;;9.60;8.83;;;15.50;82.40;;;14.58;83.42;97992.84;5071310;28;20449;-71
2021/09/26 04:49:08;;;;;;;10.53;9.63;;;15.50;82.60;;;14.52;83.76;98003.84;5062604;28;21026;-70
2021/09/26 04:51:37;;;;;;;10.83;9.73;;;15.50;82.60;;;14.43;84.60;98009.66;5067896;28;20460;-71
2021/09/26 04:54:04;;;;;;;10.97;9.87;;;15.40;82.90;;;14.49;84.11;98005.16;5062206;28;20550;-71
2021/09/26 04:56:31;;;;;;;11.03;10.03;;;15.40;83.00;;;14.41;84.59;98017.22;5075373;28;20447;-71
2021/09/26 04:58:58;;;;;;;14.60;10.37;;;15.40;83.30;;;14.30;85.05;98018.06;5070095;28;20464;-71
2021/09/26 05:01:25;;;;;;;10.23;9.30;;;15.20;83.60;;;14.54;83.62;98018.84;5068732;28;20454;-71
2021/09/26 05:03:52;;;;;;;10.77;9.67;;;15.40;83.50;;;14.59;83.77;98015.38;5066285;28;20461;-72
2021/09/26 05:06:20;;;;;;;10.63;9.73;;;15.40;83.10;;;14.49;84.25;98020.66;5065551;28;20513;-70
2021/09/26 05:08:48;;;;;;;11.03;9.97;;;15.40;83.00;;;14.27;84.99;98029.44;5068035;28;20452;-71
2021/09/26 05:11:15;;;;;;;10.90;10.00;;;15.30;83.50;;;14.02;86.09;98028.63;5070414;28;21018;-71
2021/09/26 05:13:43;;;;;;;10.80;9.83;;;15.10;84.40;;;14.05;86.54;98034.66;5069946;28;20578;-71
2021/09/26 05:16:09;;;;;;;11.33;10.13;;;15.00;85.30;;;14.01;86.88;98034.28;5077347;28;20469;-72
2021/09/26 05:18:38;;;;;;;11.60;10.40;;;15.00;85.70;;;14.00;87.18;98046.22;5069815;28;20492;-70
2021/09/26 05:21:05;;;;;;;11.83;10.73;;;15.00;86.40;;;14.04;87.54;98044.72;5060785;28;20461;-70
2021/09/26 05:23:34;;;;;;;11.10;10.13;;;15.00;86.60;;;14.40;86.27;98034.59;5066126;28;21001;-71
2021/09/26 05:26:02;;;;;;;11.40;10.37;;;15.10;86.30;;;14.67;84.26;98028.63;5073222;28;20538;-70
2021/09/26 05:28:29;;;;;;;11.50;10.20;;;15.40;84.60;;;14.83;83.67;98026.22;5065621;28;20463;-70
2021/09/26 05:30:56;;;;;;;9.70;8.80;;;15.60;84.00;;;14.77;83.70;98019.03;5067339;28;20941;-70
2021/09/26 05:33:25;;;;;;;10.70;9.77;;;15.70;83.60;;;14.83;83.48;98020.78;5068835;28;20464;-70
2021/09/26 05:35:52;;;;;;;10.67;9.67;;;15.80;83.30;;;14.91;82.82;98023.09;5062520;28;20499;-71
2021/09/26 05:38:19;;;;;;;11.30;10.30;;;15.80;83.00;;;15.04;82.74;98015.72;5063762;28;20491;-69
2021/09/26 05:40:46;;;;;;;11.13;9.07;;;15.90;83.00;;;15.19;81.62;98020.63;5060488;28;20480;-69
2021/09/26 05:43:15;;;;;;;10.40;9.40;;;16.10;82.30;;;15.26;81.38;98024.81;5065912;28;20547;-69
2021/09/26 05:45:42;;;;;;;10.37;9.47;;;16.10;81.80;;;15.32;81.26;98027.63;5064022;28;20486;-69
2021/09/26 05:48:09;;;;;;;9.90;9.00;;;16.20;81.60;;;15.40;80.86;98021.78;5070327;28;21035;-70
2021/09/26 05:50:37;;;;;;;10.83;9.93;;;16.30;81.20;;;15.37;81.10;98022.25;5068915;28;20452;-70
2021/09/26 05:53:04;;;;;;;9.93;9.13;;;16.30;81.10;;;15.42;80.70;98022.38;5064692;28;20652;-70
2021/09/26 05:55:31;;;;;;;11.40;10.30;;;16.40;81.00;;;15.45;80.42;98021.88;5060629;28;20987;-66
2021/09/26 05:57:58;;;;;;;11.83;9.77;;;16.40;80.60;;;15.59;80.13;98027.78;5079233;28;20547;-68
2021/09/26 06:00:26;;;;;;;10.50;9.60;;;16.50;80.40;;;15.63;79.62;98028.13;5059921;28;20475;-67
2021/09/26 06:02:54;;;;;;;9.83;9.03;;;16.60;80.10;;;15.71;79.34;98025.00;5059917;28;20500;-68
2021/09/26 06:05:23;;;;;;;11.30;10.30;;;16.60;79.60;;;15.63;79.68;98028.13;5060146;28;20611;-67
2021/09/26 06:07:51;;;;;;;13.70;9.90;;;16.60;79.70;;;15.82;78.93;98037.69;5060540;28;20456;-66
2021/09/26 06:10:18;;;;;;;10.47;9.40;;;16.70;79.60;;;15.85;79.13;98042.66;5064381;28;20444;-66
2021/09/26 06:12:45;;;;;;;10.57;9.43;;;16.70;79.60;;;15.92;78.23;98038.94;5068624;28;20802;-66
2021/09/26 06:15:13;;;;;;;11.77;10.37;;;16.80;79.10;;;16.01;78.22;98034.72;5059815;28;20486;-67
2021/09/26 06:17:41;;;;;;;10.80;9.87;;;16.80;78.80;;;16.03;77.88;98031.75;5060146;28;20457;-71
2021/09/26 06:20:10;;;;;;;10.93;9.93;;;16.90;78.60;;;15.88;78.38;98035.06;5061614;28;20467;-68
2021/09/26 06:22:38;;;;;;;10.80;9.70;;;16.90;78.40;;;15.89;78.44;98048.44;5061385;28;20970;-67
2021/09/26 06:25:07;;;;;;;10.27;9.37;;;16.80;78.60;;;16.03;78.03;98048.09;5059918;28;20836;-67
2021/09/26 06:27:34;;;;;;;11.43;10.43;;;16.90;78.60;;;16.17;77.55;98054.03;5060512;28;20990;-67
2021/09/26 06:30:01;;;;;;;10.33;9.30;;;17.00;78.30;;;16.18;77.27;98050.22;5061807;28;20551;-67
2021/09/26 06:32:31;;;;;;;11.10;10.00;;;17.10;77.80;;;16.12;77.72;98052.03;5058343;28;20489;-67
2021/09/26 06:34:59;;;;;;;10.30;9.43;;;17.00;77.80;;;16.14;77.75;98052.63;5064338;28;20494;-67
2021/09/26 06:37:27;;;;;;;10.63;9.63;;;17.10;77.90;;;16.04;78.18;98047.00;5068856;28;20498;-66
2021/09/26 06:39:54;;;;;;;10.13;9.23;;;17.00;77.70;;;16.03;78.19;98048.94;5058699;28;20521;-67
2021/09/26 06:42:21;;;;;;;12.87;10.13;;;17.00;77.90;;;16.10;78.28;98046.84;5065440;28;20457;-67
2021/09/26 06:44:48;;;;;;;10.10;9.10;;;17.10;77.80;;;16.31;77.27;98057.19;5065853;28;20573;-67
2021/09/26 06:47:16;;;;;;;10.70;9.67;;;17.20;77.60;;;16.29;77.61;98055.56;5070469;28;20879;-67
2021/09/26 06:49:43;;;;;;;10.27;9.23;;;17.20;77.50;;;16.23;78.04;98063.91;5062632;28;20472;-67
2021/09/26 06:52:13;;;;;;;10.57;9.67;;;17.30;77.50;;;16.71;75.47;98070.53;5067572;28;20452;-67
2021/09/26 06:54:41;;;;;;;10.60;9.70;;;17.40;77.20;;;16.55;76.14;98068.69;5067456;28;20472;-66
2021/09/26 06:57:08;;;;;;;11.13;9.87;;;17.40;77.00;;;16.63;75.98;98073.72;5065614;28;20522;-66
2021/09/26 06:59:35;;;;;;;10.87;9.97;;;17.50;76.90;;;16.65;76.20;98070.72;5070189;28;20460;-67
2021/09/26 07:02:02;;;;;;;10.10;9.20;;;17.50;76.90;;;16.67;75.96;98063.94;5063069;28;20507;-67
2021/09/26 07:04:29;;;;;;;10.40;9.50;;;17.50;76.80;;;16.61;76.69;98067.69;5069042;28;20480;-66
2021/09/26 07:06:56;;;;;;;10.80;9.80;;;17.50;76.70;;;16.74;76.09;98071.94;5069074;28;20484;-67
2021/09/26 07:09:25;;;;;;;10.17;9.17;;;17.60;76.60;;;16.81;76.21;98077.19;5066042;28;20456;-68
2021/09/26 07:11:52;;;;;;;11.33;10.13;;;17.70;76.40;;;16.78;76.10;98069.53;5064145;28;20464;-68
2021/09/26 07:14:19;;;;;;;11.80;10.60;;;17.80;76.40;;;17.02;75.24;98058.34;5064392;28;20479;-68
2021/09/26 07:16:46;;;;;;;11.60;10.50;;;17.90;76.10;;;17.13;74.84;98065.56;5066715;28;20500;-67
2021/09/26 07:19:15;;;;;;;10.20;9.20;;;18.00;75.90;;;17.16;74.65;98056.84;5078220;28;20936;-69
2021/09/26 07:21:42;;;;;;;12.60;9.83;;;18.10;75.90;;;17.15;74.69;98057.94;5072615;28;20460;-67
2021/09/26 07:24:09;;;;;;;10.80;9.70;;;18.10;75.60;;;17.15;75.30;98052.47;5070257;28;20964;-67
2021/09/26 07:26:38;;;;;;;10.83;9.83;;;18.20;75.60;;;17.48;74.39;98055.25;5060991;28;20471;-68
2021/09/26 07:29:05;;;;;;;11.03;10.13;;;18.30;75.50;;;17.73;73.00;98053.78;5063589;28;20552;-68
2021/09/26 07:31:32;;;;;;;10.70;9.80;;;18.60;74.80;;;17.90;72.70;98061.84;5067045;28;20492;-68
2021/09/26 07:33:59;;;;;;;10.40;9.40;;;18.70;74.50;;;17.83;72.41;98068.38;5068964;28;20567;-67
2021/09/26 07:36:26;;;;;;;9.60;8.80;;;18.80;73.90;;;18.12;71.70;98070.81;5064204;28;20531;-67
2021/09/26 07:38:52;;;;;;;10.40;9.40;;;18.90;73.80;;;17.99;72.17;98071.22;5067492;28;20555;-67
2021/09/26 07:41:19;;;;;;;10.50;9.60;;;18.80;73.80;;;17.78;73.17;98065.59;5065517;28;21010;-68
2021/09/26 07:43:48;;;;;;;10.87;9.87;;;18.70;74.00;;;17.71;73.78;98070.47;5065256;28;20471;-74
2021/09/26 07:46:15;;;;;;;10.40;9.33;;;18.70;74.30;;;18.01;72.80;98071.78;5064748;28;20450;-67
2021/09/26 07:48:42;;;;;;;10.33;9.43;;;18.80;74.30;;;17.98;73.27;98075.03;5063980;28;20560;-67
2021/09/26 07:51:09;;;;;;;11.30;10.30;;;18.80;74.30;;;18.17;72.45;98071.91;5068261;28;20453;-68
2021/09/26 07:53:36;;;;;;;11.20;10.03;;;18.90;74.20;;;18.33;72.20;98079.13;5070203;28;20551;-67
2021/09/26 07:56:05;;;;;;;11.70;10.30;;;19.10;74.10;;;18.73;70.72;98078.75;5064092;28;20468;-68
2021/09/26 07:58:32;;;;;;;10.73;9.80;;;19.40;73.50;;;18.88;70.12;98083.47;5064889;28;20944;-69
2021/09/26 08:01:01;;;;;;;9.80;8.90;;;19.60;72.80;;;19.08;69.66;98080.00;5065996;28;21003;-68
2021/09/26 08:03:28;;;;;;;11.43;10.33;;;19.70;72.60;;;19.02;69.75;98075.59;5060481;28;20957;-66
2021/09/26 08:05:56;;;;;;;10.40;9.50;;;19.80;72.40;;;18.81;70.69;98081.81;5065036;28;20498;-68
2021/09/26 08:08:23;;;;;;;10.27;9.27;;;19.70;72.50;;;18.93;70.77;98087.03;5062994;28;20502;-66
2021/09/26 08:10:50;;;;;;;9.50;8.60;;;19.70;72.70;;;19.06;70.52;98084.94;5064285;28;20935;-68
2021/09/26 08:13:18;;;;;;;10.80;9.90;;;19.90;72.70;;;19.18;69.86;98082.75;5069744;28;20543;-68
2021/09/26 08:15:45;;;;;;;10.50;9.50;;;20.00;72.40;;;19.33;69.14;98081.13;5064385;28;20512;-68
2021/09/26 08:18:13;;;;;;;10.37;9.53;;;20.10;72.00;;;19.34;69.42;98072.66;5069690;28;20471;-68
2021/09/26 08:20:40;;;;;;;10.40;9.40;;;20.10;71.90;;;19.39;69.28;98085.53;5059413;28;20616;-68
2021/09/26 08:23:07;;;;;;;11.23;10.03;;;20.20;71.90;;;19.58;69.05;98082.25;5061672;28;20472;-68
2021/09/26 08:25:34;;;;;;;9.63;8.83;;;20.30;71.80;;;19.72;68.03;98083.38;5063009;28;21108;-69
2021/09/26 08:28:01;;;;;;;9.57;8.57;;;20.40;71.20;;;19.88;67.81;98077.88;5059477;28;20544;-69
2021/09/26 08:30:28;;;;;;;10.30;9.30;;;20.60;71.00;;;19.90;67.71;98067.47;5063101;28;20543;-68
2021/09/26 08:32:55;;;;;;;10.83;9.93;;;20.70;70.90;;;19.89;67.83;98071.31;5062427;28;20463;-73
2021/09/26 08:35:23;;;;;;;9.53;8.63;;;20.70;70.60;;;20.00;67.48;98066.66;5055981;28;20504;-68
2021/09/26 08:37:50;;;;;;;10.90;9.90;;;20.80;71.10;;;19.88;67.51;98065.00;5060764;28;21210;-68
2021/09/26 08:40:18;;;;;;;11.17;9.30;;;20.70;70.30;;;19.95;67.39;98065.56;5062724;28;20981;-69
2021/09/26 08:42:45;;;;;;;10.00;9.10;;;20.70;70.40;;;20.14;67.19;98066.91;5057010;28;20480;-68
2021/09/26 08:45:16;;;;;;;10.37;9.47;;;20.80;70.30;;;20.00;67.53;98051.03;5059936;28;20501;-68
2021/09/26 08:47:43;;;;;;;9.63;8.77;;;20.90;70.30;;;20.23;67.17;98066.06;5067199;28;20999;-68
2021/09/26 08:50:14;;;;;;;10.67;9.60;;;21.00;70.10;;;20.33;66.35;98062.47;5062043;28;20479;-68
2021/09/26 08:52:44;;;;;;;10.47;9.67;;;21.00;69.90;;;20.29;66.47;98064.16;5064721;28;20543;-69
2021/09/26 08:55:13;;;;;;;9.90;8.63;;;21.10;69.70;;;20.45;66.06;98066.84;5057300;28;20473;-69
2021/09/26 08:57:41;;;;;;;9.03;8.07;;;21.20;69.50;;;20.70;65.20;98065.09;5054125;28;20469;-69
2021/09/26 09:00:13;;;;;;;10.87;9.70;;;21.40;69.30;;;20.61;65.67;98075.81;5061936;28;20445;-68
2021/09/26 09:02:41;;;;;;;9.10;8.30;;;21.40;69.10;;;20.70;65.44;98059.59;5066918;28;20467;-68
2021/09/26 09:05:27;;;;;;;11.47;8.20;;;21.40;68.80;;;20.98;64.34;98068.28;5059762;28;20476;-69
2021/09/26 09:08:07;;;;;;;9.67;8.70;;;21.70;68.60;;;20.92;64.49;98065.59;5062262;28;20552;-69
2021/09/26 09:10:47;;;;;;;10.83;9.00;;;21.70;68.10;;;21.04;64.17;98067.16;5064820;28;20473;-69
2021/09/26 09:13:18;;;;;;;10.13;8.83;;;21.80;68.20;;;21.07;64.36;98061.09;5065679;28;20862;-68
2021/09/26 09:15:54;;;;;;;9.60;8.70;;;21.80;68.20;;;21.31;62.98;98076.91;5058930;28;20550;-80
2021/09/26 09:18:23;;;;;;;9.53;8.63;;;22.00;67.60;;;21.40;62.77;98086.19;5061680;28;20526;-68
2021/09/26 09:20:51;;;;;;;11.60;8.83;;;22.10;67.20;;;21.15;64.06;98098.16;5063019;28;20886;-68
2021/09/26 09:23:22;;;;;;;10.43;9.20;;;22.00;67.30;;;20.98;64.28;98090.25;5068440;28;20487;-68
2021/09/26 09:25:52;;;;;;;10.07;9.17;;;21.90;67.50;;;21.12;64.47;98096.78;5064731;28;20480;-67
2021/09/26 09:28:22;;;;;;;9.30;8.50;;;21.90;67.70;;;21.23;64.00;98108.56;5068428;28;20492;-68
2021/09/26 09:30:51;;;;;;;9.63;8.20;;;22.00;67.50;;;21.37;63.62;98109.53;5069907;28;20485;-68
2021/09/26 09:33:21;;;;;;;8.83;8.13;;;22.00;67.50;;;21.32;63.77;98103.28;5081722;28;20467;-68
2021/09/26 09:35:51;;;;;;;9.20;8.30;;;22.10;67.70;;;21.41;63.17;98112.53;5064001;28;20483;-69
2021/09/26 09:38:36;;;;;;;9.03;8.13;;;22.20;67.20;;;21.75;62.05;98103.53;5065014;28;20461;-68
2021/09/26 09:41:04;;;;;;;13.40;9.10;;;22.40;66.70;;;21.42;62.93;98110.63;5062974;28;21084;-68
2021/09/26 09:43:46;;;;;;;10.13;8.83;;;22.30;66.50;;;21.34;63.46;98104.63;5065042;28;20543;-69
2021/09/26 09:46:14;;;;;;;9.53;8.63;;;22.20;66.70;;;21.50;63.12;98099.03;5062882;28;20460;-69
2021/09/26 09:48:41;;;;;;;9.80;8.70;;;22.20;66.70;;;21.86;61.86;98114.47;5064468;28;20461;-68
2021/09/26 09:51:11;;;;;;;13.80;8.13;;;22.50;66.50;;;21.91;61.91;98111.66;5060374;28;20505;-68
2021/09/26 09:53:41;;;;;;;9.67;8.40;;;22.60;66.20;;;22.26;60.55;98095.13;5060305;28;20460;-69
2021/09/26 09:56:14;;;;;;;9.93;8.37;;;22.80;65.70;;;22.34;59.80;98098.06;5067410;28;20969;-69
2021/09/26 09:58:45;;;;;;;8.43;7.63;;;23.00;65.30;;;22.30;59.41;98094.25;5063591;28;20453;-69
2021/09/26 10:01:14;;;;;;;8.60;7.77;;;23.10;64.60;;;22.36;59.27;98093.06;5066214;28;20911;-69
2021/09/26 10:03:49;;;;;;;8.23;7.53;;;23.20;64.40;;;22.53;58.07;98094.59;5060967;28;20555;-69
2021/09/26 10:06:26;;;;;;;8.63;7.73;;;23.20;63.60;;;22.44;58.60;98102.63;5063980;28;20974;-69
2021/09/26 10:08:57;;;;;;;8.60;7.47;;;23.20;63.60;;;22.55;58.33;98106.13;5060555;28;20448;-68
2021/09/26 10:11:26;;;;;;;8.70;7.90;;;23.30;63.80;;;22.71;58.10;98105.97;5059334;28;20832;-68
2021/09/26 10:13:53;;;;;;;8.80;7.53;;;23.40;63.70;;;22.53;58.06;98102.88;5063877;28;20472;-67
2021/09/26 10:16:21;;;;;;;9.40;7.57;;;23.30;63.20;;;22.61;58.01;98107.72;5063022;28;20567;-67
2021/09/26 10:18:49;;;;;;;8.73;8.00;;;23.30;63.20;;;22.63;57.90;98108.22;5063744;28;20734;-68